sensor_id;sensor_type;location;lat;lon;timestamp;pressure;altitude;pressure_sealevel;temperature;humidity
64340;BME280;63709;53.258;-8.814;2023-06-14T00:05:18;101659.44;;;20.57;100.00
64340;BME280;63709;53.258;-8.814;2023-06-14T00:14:27;101642.63;;;20.53;100.00
64340;BME280;63709;53.258;-8.814;2023-06-14T00:20:14;101670.53;;;20.64;100.00
64340;BME280;63709;53.258;-8.814;2023-06-14T00:26:05;101639.41;;;20.50;100.00
64340;BME280;63709;53.258;-8.814;2023-06-14T00:31:52;101640.94;;;20.52;100.00
64340;BME280;63709;53.258;-8.814;2023-06-14T00:44:26;101650.34;;;20.40;100.00
64340;BME280;63709;53.258;-8.814;2023-06-14T00:47:13;101664.25;;;20.45;100.00
64340;BME280;63709;53.258;-8.814;2023-06-14T01:20:06;101653.41;;;20.01;100.00
64340;BME280;63709;53.258;-8.814;2023-06-14T01:25:57;101650.03;;;19.99;100.00
64340;BME280;63709;53.258;-8.814;2023-06-14T01:31:45;101649.63;;;19.94;100.00
64340;BME280;63709;53.258;-8.814;2023-06-14T01:37:33;101660.63;;;19.93;100.00
64340;BME280;63709;53.258;-8.814;2023-06-14T01:43:02;101679.66;;;20.01;100.00
64340;BME280;63709;53.258;-8.814;2023-06-14T01:49:00;101647.38;;;19.72;100.00
64340;BME280;63709;53.258;-8.814;2023-06-14T01:54:56;101672.19;;;19.77;100.00
64340;BME280;63709;53.258;-8.814;2023-06-14T02:55:30;101639.75;;;19.40;100.00
64340;BME280;63709;53.258;-8.814;2023-06-14T03:01:27;101640.16;;;19.45;100.00
64340;BME280;63709;53.258;-8.814;2023-06-14T03:07:27;101625.72;;;19.26;100.00
64340;BME280;63709;53.258;-8.814;2023-06-14T03:13:19;101621.25;;;19.17;100.00
64340;BME280;63709;53.258;-8.814;2023-06-14T03:19:08;101615.28;;;19.14;100.00
64340;BME280;63709;53.258;-8.814;2023-06-14T04:16:56;101627.44;;;18.62;100.00
64340;BME280;63709;53.258;-8.814;2023-06-14T04:22:43;101632.56;;;18.66;100.00
64340;BME280;63709;53.258;-8.814;2023-06-14T04:28:33;101635.38;;;18.64;100.00
64340;BME280;63709;53.258;-8.814;2023-06-14T04:34:28;101648.06;;;18.63;100.00
64340;BME280;63709;53.258;-8.814;2023-06-14T04:40:17;101637.31;;;18.44;100.00
64340;BME280;63709;53.258;-8.814;2023-06-14T04:46:07;101635.63;;;18.43;100.00
64340;BME280;63709;53.258;-8.814;2023-06-14T05:13:26;101666.16;;;18.53;100.00
64340;BME280;63709;53.258;-8.814;2023-06-14T05:19:21;101634.50;;;18.36;100.00
64340;BME280;63709;53.258;-8.814;2023-06-14T05:31:54;101634.03;;;18.50;100.00
64340;BME280;63709;53.258;-8.814;2023-06-14T05:51:07;101653.47;;;18.73;100.00
64340;BME280;63709;53.258;-8.814;2023-06-14T06:03:45;101662.16;;;19.04;100.00
64340;BME280;63709;53.258;-8.814;2023-06-14T06:06:13;101667.25;;;19.17;100.00
64340;BME280;63709;53.258;-8.814;2023-06-14T06:08:54;101661.88;;;19.07;100.00
64340;BME280;63709;53.258;-8.814;2023-06-14T06:18:53;101707.44;;;19.67;100.00
64340;BME280;63709;53.258;-8.814;2023-06-14T06:32:07;101695.25;;;19.81;100.00
64340;BME280;63709;53.258;-8.814;2023-06-14T06:51:00;101693.03;;;20.56;100.00
64340;BME280;63709;53.258;-8.814;2023-06-14T07:10:25;101701.44;;;21.05;100.00
64340;BME280;63709;53.258;-8.814;2023-06-14T07:12:51;101693.09;;;20.98;100.00
64340;BME280;63709;53.258;-8.814;2023-06-14T07:26:18;101709.69;;;21.56;100.00
64340;BME280;63709;53.258;-8.814;2023-06-14T07:35:49;101732.38;;;22.05;100.00
64340;BME280;63709;53.258;-8.814;2023-06-14T07:38:48;101733.28;;;22.14;100.00
64340;BME280;63709;53.258;-8.814;2023-06-14T08:10:20;101742.75;;;22.75;100.00
64340;BME280;63709;53.258;-8.814;2023-06-14T08:12:57;101738.34;;;22.82;100.00
64340;BME280;63709;53.258;-8.814;2023-06-14T08:15:36;101754.16;;;23.03;100.00
64340;BME280;63709;53.258;-8.814;2023-06-14T08:24:49;101742.53;;;23.09;100.00
64340;BME280;63709;53.258;-8.814;2023-06-14T08:37:40;101751.84;;;23.31;100.00
64340;BME280;63709;53.258;-8.814;2023-06-14T08:40:27;101731.63;;;23.17;100.00
64340;BME280;63709;53.258;-8.814;2023-06-14T08:59:55;101747.13;;;23.96;100.00
64340;BME280;63709;53.258;-8.814;2023-06-14T09:05:44;101738.69;;;24.05;100.00
64340;BME280;63709;53.258;-8.814;2023-06-14T09:08:12;101758.78;;;24.12;100.00
64340;BME280;63709;53.258;-8.814;2023-06-14T09:10:39;101756.47;;;24.24;100.00
64340;BME280;63709;53.258;-8.814;2023-06-14T09:26:38;101747.06;;;24.50;100.00
64340;BME280;63709;53.258;-8.814;2023-06-14T09:29:05;101746.34;;;24.56;100.00
64340;BME280;63709;53.258;-8.814;2023-06-14T09:41:41;101742.16;;;24.98;100.00
64340;BME280;63709;53.258;-8.814;2023-06-14T10:01:13;101745.66;;;26.23;100.00
64340;BME280;63709;53.258;-8.814;2023-06-14T10:23:47;101754.47;;;28.74;100.00
64340;BME280;63709;53.258;-8.814;2023-06-14T10:33:14;101753.91;;;29.56;100.00
64340;BME280;63709;53.258;-8.814;2023-06-14T10:35:46;101744.66;;;29.89;100.00
64340;BME280;63709;53.258;-8.814;2023-06-14T10:38:30;101739.97;;;30.28;100.00
64340;BME280;63709;53.258;-8.814;2023-06-14T10:47:01;101743.22;;;30.75;91.91
64340;BME280;63709;53.258;-8.814;2023-06-14T10:59:33;101727.94;;;31.16;75.47
64340;BME280;63709;53.258;-8.814;2023-06-14T11:05:52;101736.97;;;31.23;75.28
64340;BME280;63709;53.258;-8.814;2023-06-14T11:08:59;101717.94;;;31.81;68.58
64340;BME280;63709;53.258;-8.814;2023-06-14T11:18:38;101729.25;;;32.22;63.05
64340;BME280;63709;53.258;-8.814;2023-06-14T11:24:26;101722.47;;;32.48;66.62
64340;BME280;63709;53.258;-8.814;2023-06-14T11:26:52;101707.94;;;32.76;64.36
64340;BME280;63709;53.258;-8.814;2023-06-14T11:43:19;101730.34;;;32.21;57.45
64340;BME280;63709;53.258;-8.814;2023-06-14T11:45:48;101726.81;;;32.44;63.20
64340;BME280;63709;53.258;-8.814;2023-06-14T11:48:37;101724.19;;;32.72;69.83
64340;BME280;63709;53.258;-8.814;2023-06-14T11:51:14;101725.84;;;32.85;68.28
64340;BME280;63709;53.258;-8.814;2023-06-14T11:54:16;101719.25;;;32.86;60.09
64340;BME280;63709;53.258;-8.814;2023-06-14T11:56:42;101719.84;;;32.88;60.58
64340;BME280;63709;53.258;-8.814;2023-06-14T11:59:14;101707.59;;;32.72;60.47
64340;BME280;63709;53.258;-8.814;2023-06-14T12:02:04;101707.94;;;31.99;55.38
64340;BME280;63709;53.258;-8.814;2023-06-14T12:08:01;101709.78;;;32.05;58.88
64340;BME280;63709;53.258;-8.814;2023-06-14T12:10:29;101709.88;;;31.68;59.67
64340;BME280;63709;53.258;-8.814;2023-06-14T12:58:43;101699.03;;;33.78;52.85
64340;BME280;63709;53.258;-8.814;2023-06-14T13:25:14;101685.22;;;32.97;53.77
64340;BME280;63709;53.258;-8.814;2023-06-14T13:34:33;101683.78;;;33.35;58.04
64340;BME280;63709;53.258;-8.814;2023-06-14T13:36:59;101677.34;;;33.58;57.37
64340;BME280;63709;53.258;-8.814;2023-06-14T13:39:34;101676.22;;;33.71;57.56
64340;BME280;63709;53.258;-8.814;2023-06-14T13:42:03;101674.56;;;33.87;55.32
64340;BME280;63709;53.258;-8.814;2023-06-14T13:44:28;101683.28;;;33.95;55.86
64340;BME280;63709;53.258;-8.814;2023-06-14T13:47:03;101658.91;;;33.64;52.19
64340;BME280;63709;53.258;-8.814;2023-06-14T13:49:32;101671.59;;;33.77;54.89
64340;BME280;63709;53.258;-8.814;2023-06-14T13:52:01;101681.13;;;33.40;52.92
64340;BME280;63709;53.258;-8.814;2023-06-14T13:54:26;101681.56;;;33.61;55.84
64340;BME280;63709;53.258;-8.814;2023-06-14T13:56:52;101675.75;;;33.91;55.25
64340;BME280;63709;53.258;-8.814;2023-06-14T13:59:17;101674.63;;;33.92;54.96
64340;BME280;63709;53.258;-8.814;2023-06-14T14:01:42;101667.31;;;33.69;53.68
64340;BME280;63709;53.258;-8.814;2023-06-14T14:04:08;101657.03;;;33.53;52.81
64340;BME280;63709;53.258;-8.814;2023-06-14T14:06:34;101661.13;;;33.79;53.31
64340;BME280;63709;53.258;-8.814;2023-06-14T14:09:09;101666.47;;;33.85;59.74
64340;BME280;63709;53.258;-8.814;2023-06-14T14:11:35;101673.03;;;33.79;52.29
64340;BME280;63709;53.258;-8.814;2023-06-14T14:14:01;101670.00;;;33.81;55.82
64340;BME280;63709;53.258;-8.814;2023-06-14T14:16:28;101670.75;;;33.76;54.87
64340;BME280;63709;53.258;-8.814;2023-06-14T14:19:08;101675.22;;;33.77;63.23
64340;BME280;63709;53.258;-8.814;2023-06-14T14:21:34;101674.75;;;33.97;68.82
64340;BME280;63709;53.258;-8.814;2023-06-14T14:24:02;101688.75;;;33.90;74.16
64340;BME280;63709;53.258;-8.814;2023-06-14T14:26:28;101668.47;;;33.73;75.41
64340;BME280;63709;53.258;-8.814;2023-06-14T14:29:06;101670.84;;;33.24;76.62
64340;BME280;63709;53.258;-8.814;2023-06-14T14:31:37;101671.59;;;33.60;81.09
64340;BME280;63709;53.258;-8.814;2023-06-14T14:34:06;101677.13;;;33.60;86.77
64340;BME280;63709;53.258;-8.814;2023-06-14T14:36:48;101671.75;;;33.41;82.08
64340;BME280;63709;53.258;-8.814;2023-06-14T14:39:17;101674.88;;;33.33;89.54
64340;BME280;63709;53.258;-8.814;2023-06-14T14:41:42;101667.19;;;33.35;84.95
64340;BME280;63709;53.258;-8.814;2023-06-14T14:44:28;101670.16;;;32.82;91.03
64340;BME280;63709;53.258;-8.814;2023-06-14T14:50:08;101680.53;;;32.63;90.83
64340;BME280;63709;53.258;-8.814;2023-06-14T14:52:38;101666.13;;;32.61;94.48
64340;BME280;63709;53.258;-8.814;2023-06-14T14:55:05;101663.47;;;32.66;90.07
64340;BME280;63709;53.258;-8.814;2023-06-14T14:57:54;101676.56;;;32.70;89.56
64340;BME280;63709;53.258;-8.814;2023-06-14T15:00:20;101671.28;;;32.69;90.79
64340;BME280;63709;53.258;-8.814;2023-06-14T15:02:49;101671.41;;;32.62;99.07
64340;BME280;63709;53.258;-8.814;2023-06-14T15:05:14;101667.56;;;32.51;94.56
64340;BME280;63709;53.258;-8.814;2023-06-14T15:07:40;101673.34;;;32.50;91.27
64340;BME280;63709;53.258;-8.814;2023-06-14T15:10:18;101656.94;;;32.13;93.04
64340;BME280;63709;53.258;-8.814;2023-06-14T15:12:45;101667.72;;;32.15;96.30
64340;BME280;63709;53.258;-8.814;2023-06-14T15:15:11;101667.97;;;32.01;95.42
64340;BME280;63709;53.258;-8.814;2023-06-14T15:17:38;101659.13;;;31.81;94.01
64340;BME280;63709;53.258;-8.814;2023-06-14T15:20:11;101671.19;;;31.87;100.00
64340;BME280;63709;53.258;-8.814;2023-06-14T15:22:38;101671.69;;;31.95;97.57
64340;BME280;63709;53.258;-8.814;2023-06-14T15:25:03;101665.19;;;31.90;100.00
64340;BME280;63709;53.258;-8.814;2023-06-14T15:27:35;101662.66;;;31.88;100.00
64340;BME280;63709;53.258;-8.814;2023-06-14T15:30:02;101672.88;;;31.99;100.00
64340;BME280;63709;53.258;-8.814;2023-06-14T15:32:28;101671.19;;;31.87;100.00
64340;BME280;63709;53.258;-8.814;2023-06-14T15:35:08;101669.63;;;31.61;100.00
64340;BME280;63709;53.258;-8.814;2023-06-14T15:37:35;101674.88;;;31.50;100.00
64340;BME280;63709;53.258;-8.814;2023-06-14T15:40:03;101665.38;;;31.28;100.00
64340;BME280;63709;53.258;-8.814;2023-06-14T15:42:31;101684.84;;;31.15;100.00
64340;BME280;63709;53.258;-8.814;2023-06-14T15:45:05;101669.69;;;30.62;100.00
64340;BME280;63709;53.258;-8.814;2023-06-14T15:47:32;101665.81;;;30.70;100.00
64340;BME280;63709;53.258;-8.814;2023-06-14T15:50:04;101671.63;;;30.36;100.00
64340;BME280;63709;53.258;-8.814;2023-06-14T15:52:51;101685.00;;;30.08;100.00
64340;BME280;63709;53.258;-8.814;2023-06-14T15:55:18;101669.13;;;30.03;100.00
64340;BME280;63709;53.258;-8.814;2023-06-14T15:57:47;101693.50;;;30.00;100.00
64340;BME280;63709;53.258;-8.814;2023-06-14T16:00:14;101674.38;;;29.80;100.00
64340;BME280;63709;53.258;-8.814;2023-06-14T16:02:40;101695.22;;;29.62;100.00
64340;BME280;63709;53.258;-8.814;2023-06-14T16:05:33;101697.66;;;29.39;100.00
64340;BME280;63709;53.258;-8.814;2023-06-14T16:08:00;101696.94;;;29.12;100.00
64340;BME280;63709;53.258;-8.814;2023-06-14T16:10:29;101714.31;;;28.92;100.00
64340;BME280;63709;53.258;-8.814;2023-06-14T16:12:58;101696.34;;;28.70;100.00
64340;BME280;63709;53.258;-8.814;2023-06-14T16:15:30;101712.44;;;28.53;100.00
64340;BME280;63709;53.258;-8.814;2023-06-14T16:17:58;101710.34;;;28.42;100.00
64340;BME280;63709;53.258;-8.814;2023-06-14T16:20:25;101707.34;;;28.37;100.00
64340;BME280;63709;53.258;-8.814;2023-06-14T16:22:55;101701.22;;;28.08;100.00
64340;BME280;63709;53.258;-8.814;2023-06-14T16:25:27;101705.22;;;27.92;100.00
64340;BME280;63709;53.258;-8.814;2023-06-14T16:28:05;101717.47;;;27.96;100.00
64340;BME280;63709;53.258;-8.814;2023-06-14T16:30:30;101709.38;;;27.88;100.00
64340;BME280;63709;53.258;-8.814;2023-06-14T16:32:58;101713.81;;;27.76;100.00
64340;BME280;63709;53.258;-8.814;2023-06-14T16:35:36;101710.53;;;27.53;100.00
64340;BME280;63709;53.258;-8.814;2023-06-14T16:38:28;101716.88;;;27.53;100.00
64340;BME280;63709;53.258;-8.814;2023-06-14T16:44:15;101710.25;;;27.34;100.00
64340;BME280;63709;53.258;-8.814;2023-06-14T16:49:43;101703.19;;;27.12;100.00
64340;BME280;63709;53.258;-8.814;2023-06-14T16:52:11;101718.44;;;26.93;100.00
64340;BME280;63709;53.258;-8.814;2023-06-14T16:54:43;101699.00;;;26.81;100.00
64340;BME280;63709;53.258;-8.814;2023-06-14T16:57:15;101712.47;;;26.83;100.00
64340;BME280;63709;53.258;-8.814;2023-06-14T16:59:47;101692.72;;;26.59;100.00
64340;BME280;63709;53.258;-8.814;2023-06-14T17:02:28;101682.75;;;26.51;100.00
64340;BME280;63709;53.258;-8.814;2023-06-14T17:05:12;101702.41;;;26.62;100.00
64340;BME280;63709;53.258;-8.814;2023-06-14T17:08:03;101699.66;;;26.34;100.00
64340;BME280;63709;53.258;-8.814;2023-06-14T17:13:56;101651.97;;;26.00;100.00
64340;BME280;63709;53.258;-8.814;2023-06-14T17:16:24;101693.50;;;26.31;100.00
64340;BME280;63709;53.258;-8.814;2023-06-14T17:18:49;101702.47;;;26.19;100.00
64340;BME280;63709;53.258;-8.814;2023-06-14T17:21:16;101695.09;;;26.19;100.00
64340;BME280;63709;53.258;-8.814;2023-06-14T17:23:44;101686.50;;;26.01;100.00
64340;BME280;63709;53.258;-8.814;2023-06-14T17:26:09;101677.25;;;26.02;100.00
64340;BME280;63709;53.258;-8.814;2023-06-14T17:28:35;101699.03;;;25.89;100.00
64340;BME280;63709;53.258;-8.814;2023-06-14T17:31:05;101699.22;;;26.09;100.00
64340;BME280;63709;53.258;-8.814;2023-06-14T17:33:31;101696.91;;;26.12;100.00
64340;BME280;63709;53.258;-8.814;2023-06-14T17:35:57;101709.94;;;26.10;100.00
64340;BME280;63709;53.258;-8.814;2023-06-14T17:38:23;101703.56;;;26.24;100.00
64340;BME280;63709;53.258;-8.814;2023-06-14T17:40:53;101651.84;;;25.87;100.00
64340;BME280;63709;53.258;-8.814;2023-06-14T17:43:18;101722.31;;;26.27;100.00
64340;BME280;63709;53.258;-8.814;2023-06-14T17:45:46;101721.81;;;26.17;100.00
64340;BME280;63709;53.258;-8.814;2023-06-14T17:48:13;101709.31;;;26.08;100.00
64340;BME280;63709;53.258;-8.814;2023-06-14T17:50:40;101703.69;;;25.95;100.00
64340;BME280;63709;53.258;-8.814;2023-06-14T17:53:06;101723.63;;;26.10;100.00
64340;BME280;63709;53.258;-8.814;2023-06-14T17:55:33;101722.53;;;26.04;100.00
64340;BME280;63709;53.258;-8.814;2023-06-14T17:58:01;101728.38;;;26.01;100.00
64340;BME280;63709;53.258;-8.814;2023-06-14T18:00:27;101724.72;;;25.94;100.00
64340;BME280;63709;53.258;-8.814;2023-06-14T18:02:52;101736.22;;;26.04;100.00
64340;BME280;63709;53.258;-8.814;2023-06-14T18:05:20;101743.44;;;25.91;100.00
64340;BME280;63709;53.258;-8.814;2023-06-14T18:07:45;101748.91;;;25.91;100.00
64340;BME280;63709;53.258;-8.814;2023-06-14T18:10:19;101750.34;;;25.72;100.00
64340;BME280;63709;53.258;-8.814;2023-06-14T18:12:45;101739.66;;;25.77;100.00
64340;BME280;63709;53.258;-8.814;2023-06-14T18:15:14;101750.84;;;25.61;100.00
64340;BME280;63709;53.258;-8.814;2023-06-14T18:17:39;101764.81;;;25.36;100.00
64340;BME280;63709;53.258;-8.814;2023-06-14T18:20:05;101759.44;;;25.43;100.00
64340;BME280;63709;53.258;-8.814;2023-06-14T18:22:31;101753.97;;;25.43;100.00
64340;BME280;63709;53.258;-8.814;2023-06-14T18:24:57;101769.91;;;25.24;100.00
64340;BME280;63709;53.258;-8.814;2023-06-14T18:27:28;101769.53;;;25.27;100.00
64340;BME280;63709;53.258;-8.814;2023-06-14T18:29:54;101755.41;;;25.24;100.00
64340;BME280;63709;53.258;-8.814;2023-06-14T18:32:20;101736.97;;;25.03;100.00
64340;BME280;63709;53.258;-8.814;2023-06-14T18:34:46;101787.72;;;25.20;100.00
64340;BME280;63709;53.258;-8.814;2023-06-14T18:37:11;101784.16;;;25.20;100.00
64340;BME280;63709;53.258;-8.814;2023-06-14T18:39:37;101786.94;;;24.97;100.00
64340;BME280;63709;53.258;-8.814;2023-06-14T18:42:03;101784.50;;;25.17;100.00
64340;BME280;63709;53.258;-8.814;2023-06-14T18:44:29;101788.00;;;25.10;100.00
64340;BME280;63709;53.258;-8.814;2023-06-14T18:46:56;101788.41;;;24.84;100.00
64340;BME280;63709;53.258;-8.814;2023-06-14T18:49:21;101787.19;;;25.02;100.00
64340;BME280;63709;53.258;-8.814;2023-06-14T18:51:47;101796.25;;;25.02;100.00
64340;BME280;63709;53.258;-8.814;2023-06-14T18:54:13;101792.97;;;25.07;100.00
64340;BME280;63709;53.258;-8.814;2023-06-14T18:59:07;101777.78;;;24.90;100.00
64340;BME280;63709;53.258;-8.814;2023-06-14T19:01:32;101792.63;;;24.87;100.00
64340;BME280;63709;53.258;-8.814;2023-06-14T19:03:57;101788.94;;;24.80;100.00
64340;BME280;63709;53.258;-8.814;2023-06-14T19:06:23;101801.50;;;24.89;100.00
64340;BME280;63709;53.258;-8.814;2023-06-14T19:08:51;101794.91;;;24.83;100.00
64340;BME280;63709;53.258;-8.814;2023-06-14T19:11:17;101807.34;;;24.86;100.00
64340;BME280;63709;53.258;-8.814;2023-06-14T19:13:44;101755.66;;;24.38;100.00
64340;BME280;63709;53.258;-8.814;2023-06-14T19:16:16;101807.38;;;24.63;100.00
64340;BME280;63709;53.258;-8.814;2023-06-14T19:18:41;101816.53;;;24.70;100.00
64340;BME280;63709;53.258;-8.814;2023-06-14T19:21:07;101816.38;;;24.49;100.00
64340;BME280;63709;53.258;-8.814;2023-06-14T19:23:32;101827.91;;;24.59;100.00
64340;BME280;63709;53.258;-8.814;2023-06-14T19:25:58;101827.78;;;24.52;100.00
64340;BME280;63709;53.258;-8.814;2023-06-14T19:28:24;101812.09;;;24.46;100.00
64340;BME280;63709;53.258;-8.814;2023-06-14T19:30:54;101815.59;;;24.40;100.00
64340;BME280;63709;53.258;-8.814;2023-06-14T19:33:20;101828.69;;;24.45;100.00
64340;BME280;63709;53.258;-8.814;2023-06-14T19:35:46;101810.31;;;24.30;100.00
64340;BME280;63709;53.258;-8.814;2023-06-14T19:38:12;101838.91;;;24.43;100.00
64340;BME280;63709;53.258;-8.814;2023-06-14T19:40:41;101831.44;;;24.36;100.00
64340;BME280;63709;53.258;-8.814;2023-06-14T19:43:08;101826.50;;;24.32;100.00
64340;BME280;63709;53.258;-8.814;2023-06-14T19:45:34;101813.06;;;24.30;100.00
64340;BME280;63709;53.258;-8.814;2023-06-14T19:47:59;101822.91;;;24.08;100.00
64340;BME280;63709;53.258;-8.814;2023-06-14T19:50:31;101803.03;;;24.00;100.00
64340;BME280;63709;53.258;-8.814;2023-06-14T19:52:56;101811.66;;;24.11;100.00
64340;BME280;63709;53.258;-8.814;2023-06-14T19:55:28;101804.91;;;23.99;100.00
64340;BME280;63709;53.258;-8.814;2023-06-14T19:57:53;101807.66;;;23.91;100.00
64340;BME280;63709;53.258;-8.814;2023-06-14T20:00:19;101810.28;;;23.84;100.00
64340;BME280;63709;53.258;-8.814;2023-06-14T20:02:45;101811.81;;;23.79;100.00
64340;BME280;63709;53.258;-8.814;2023-06-14T20:05:10;101820.69;;;23.73;100.00
64340;BME280;63709;53.258;-8.814;2023-06-14T20:07:38;101829.72;;;23.81;100.00
64340;BME280;63709;53.258;-8.814;2023-06-14T20:10:03;101816.28;;;23.63;100.00
64340;BME280;63709;53.258;-8.814;2023-06-14T20:12:31;101829.75;;;23.73;100.00
64340;BME280;63709;53.258;-8.814;2023-06-14T20:14:57;101834.66;;;23.78;100.00
64340;BME280;63709;53.258;-8.814;2023-06-14T20:17:22;101843.22;;;23.66;100.00
64340;BME280;63709;53.258;-8.814;2023-06-14T20:19:48;101829.72;;;23.65;100.00
64340;BME280;63709;53.258;-8.814;2023-06-14T20:22:14;101840.00;;;23.47;100.00
64340;BME280;63709;53.258;-8.814;2023-06-14T20:24:48;101828.22;;;23.54;100.00
64340;BME280;63709;53.258;-8.814;2023-06-14T20:27:15;101835.41;;;23.55;100.00
64340;BME280;63709;53.258;-8.814;2023-06-14T20:29:40;101842.56;;;23.48;100.00
64340;BME280;63709;53.258;-8.814;2023-06-14T20:32:08;101834.59;;;23.38;100.00
64340;BME280;63709;53.258;-8.814;2023-06-14T20:34:33;101843.94;;;23.36;100.00
64340;BME280;63709;53.258;-8.814;2023-06-14T20:36:59;101841.22;;;23.36;100.00
64340;BME280;63709;53.258;-8.814;2023-06-14T20:39:25;101844.47;;;23.39;100.00
64340;BME280;63709;53.258;-8.814;2023-06-14T20:41:50;101840.91;;;23.31;100.00
64340;BME280;63709;53.258;-8.814;2023-06-14T20:44:16;101867.31;;;23.30;100.00
64340;BME280;63709;53.258;-8.814;2023-06-14T20:46:42;101859.31;;;23.21;100.00
64340;BME280;63709;53.258;-8.814;2023-06-14T20:49:10;101860.31;;;23.28;100.00
64340;BME280;63709;53.258;-8.814;2023-06-14T20:51:37;101869.72;;;23.09;100.00
64340;BME280;63709;53.258;-8.814;2023-06-14T20:54:04;101869.56;;;23.10;100.00
64340;BME280;63709;53.258;-8.814;2023-06-14T20:56:31;101865.31;;;23.08;100.00
64340;BME280;63709;53.258;-8.814;2023-06-14T20:58:56;101859.03;;;22.99;100.00
64340;BME280;63709;53.258;-8.814;2023-06-14T21:01:22;101872.97;;;23.04;100.00
64340;BME280;63709;53.258;-8.814;2023-06-14T21:04:00;101906.63;;;22.87;100.00
64340;BME280;63709;53.258;-8.814;2023-06-14T21:06:27;101895.03;;;22.60;100.00
64340;BME280;63709;53.258;-8.814;2023-06-14T21:08:54;101892.66;;;22.65;100.00
64340;BME280;63709;53.258;-8.814;2023-06-14T21:11:20;101906.09;;;22.59;100.00
64340;BME280;63709;53.258;-8.814;2023-06-14T21:13:45;101899.28;;;22.55;100.00
64340;BME280;63709;53.258;-8.814;2023-06-14T21:16:15;101887.69;;;22.44;100.00
64340;BME280;63709;53.258;-8.814;2023-06-14T21:18:41;101897.72;;;22.44;100.00
64340;BME280;63709;53.258;-8.814;2023-06-14T21:21:20;101892.94;;;22.38;100.00
64340;BME280;63709;53.258;-8.814;2023-06-14T21:23:45;101908.94;;;22.49;100.00
64340;BME280;63709;53.258;-8.814;2023-06-14T21:26:11;101893.66;;;22.40;100.00
64340;BME280;63709;53.258;-8.814;2023-06-14T21:28:37;101899.25;;;22.46;100.00
64340;BME280;63709;53.258;-8.814;2023-06-14T21:31:08;101901.09;;;22.38;100.00
64340;BME280;63709;53.258;-8.814;2023-06-14T21:33:34;101920.53;;;22.51;100.00
64340;BME280;63709;53.258;-8.814;2023-06-14T21:36:01;101909.81;;;22.50;100.00
64340;BME280;63709;53.258;-8.814;2023-06-14T21:38:28;101903.69;;;22.48;100.00
64340;BME280;63709;53.258;-8.814;2023-06-14T21:40:54;101908.25;;;22.47;100.00
64340;BME280;63709;53.258;-8.814;2023-06-14T21:43:19;101909.97;;;22.40;100.00
64340;BME280;63709;53.258;-8.814;2023-06-14T21:45:46;101903.66;;;22.39;100.00
64340;BME280;63709;53.258;-8.814;2023-06-14T21:48:11;101924.44;;;22.49;100.00
64340;BME280;63709;53.258;-8.814;2023-06-14T21:50:37;101916.78;;;22.52;100.00
64340;BME280;63709;53.258;-8.814;2023-06-14T21:53:04;101885.78;;;22.29;100.00
64340;BME280;63709;53.258;-8.814;2023-06-14T21:55:30;101912.19;;;22.44;100.00
64340;BME280;63709;53.258;-8.814;2023-06-14T21:57:56;101891.56;;;22.34;100.00
64340;BME280;63709;53.258;-8.814;2023-06-14T22:00:21;101886.97;;;22.26;100.00
64340;BME280;63709;53.258;-8.814;2023-06-14T22:02:50;101905.84;;;22.36;100.00
64340;BME280;63709;53.258;-8.814;2023-06-14T22:05:16;101908.09;;;22.40;100.00
64340;BME280;63709;53.258;-8.814;2023-06-14T22:07:42;101909.47;;;22.44;100.00
64340;BME280;63709;53.258;-8.814;2023-06-14T22:10:10;101913.97;;;22.19;100.00
64340;BME280;63709;53.258;-8.814;2023-06-14T22:12:36;101914.00;;;22.36;100.00
64340;BME280;63709;53.258;-8.814;2023-06-14T22:15:08;101920.97;;;22.30;100.00
64340;BME280;63709;53.258;-8.814;2023-06-14T22:17:33;101918.97;;;22.32;100.00
64340;BME280;63709;53.258;-8.814;2023-06-14T22:20:14;101923.69;;;22.22;100.00
64340;BME280;63709;53.258;-8.814;2023-06-14T22:22:42;101908.22;;;22.22;100.00
64340;BME280;63709;53.258;-8.814;2023-06-14T22:25:09;101915.22;;;22.33;100.00
64340;BME280;63709;53.258;-8.814;2023-06-14T22:27:36;101903.09;;;22.19;100.00
64340;BME280;63709;53.258;-8.814;2023-06-14T22:30:13;101923.00;;;22.28;100.00
64340;BME280;63709;53.258;-8.814;2023-06-14T22:32:39;101913.31;;;22.26;100.00
64340;BME280;63709;53.258;-8.814;2023-06-14T22:35:06;101920.47;;;22.27;100.00
64340;BME280;63709;53.258;-8.814;2023-06-14T22:37:33;101922.47;;;22.25;100.00
64340;BME280;63709;53.258;-8.814;2023-06-14T22:40:07;101916.03;;;22.17;100.00
64340;BME280;63709;53.258;-8.814;2023-06-14T22:42:45;101901.91;;;22.14;100.00
64340;BME280;63709;53.258;-8.814;2023-06-14T22:45:14;101924.34;;;22.24;100.00
64340;BME280;63709;53.258;-8.814;2023-06-14T22:47:42;101936.06;;;22.16;100.00
64340;BME280;63709;53.258;-8.814;2023-06-14T22:50:09;101911.00;;;22.05;100.00
64340;BME280;63709;53.258;-8.814;2023-06-14T22:52:36;101920.19;;;22.12;100.00
64340;BME280;63709;53.258;-8.814;2023-06-14T22:55:07;101926.13;;;22.07;100.00
64340;BME280;63709;53.258;-8.814;2023-06-14T22:57:33;101930.38;;;22.10;100.00
64340;BME280;63709;53.258;-8.814;2023-06-14T23:00:00;101925.63;;;22.04;100.00
64340;BME280;63709;53.258;-8.814;2023-06-14T23:02:26;101938.22;;;22.13;100.00
64340;BME280;63709;53.258;-8.814;2023-06-14T23:04:53;101930.19;;;22.03;100.00
64340;BME280;63709;53.258;-8.814;2023-06-14T23:07:20;101910.97;;;21.96;100.00
64340;BME280;63709;53.258;-8.814;2023-06-14T23:09:47;101929.34;;;22.03;100.00
64340;BME280;63709;53.258;-8.814;2023-06-14T23:12:14;101934.44;;;22.06;100.00
64340;BME280;63709;53.258;-8.814;2023-06-14T23:14:40;101929.53;;;22.09;100.00
64340;BME280;63709;53.258;-8.814;2023-06-14T23:17:07;101928.84;;;22.07;100.00